الصفحة الرئيسية
METAR-TAF:

METAR-TAF

مطار :

مطار الكويت الدولي

مدينة الكويت, الكويت

دائرة عرض: 29-13N, خط طول: 047-59E, ارتفاع: 55 متر

مراقبة الطقس الحالي

تاريخ ووقت الإصدار 1ساعة و 0 دقيقة قبل الساعة 04:00UTC
ريح 12 عقدة من الشمال الغربي
درجة الحرارة 36°درجة مئوية
الرطوبة 16%
ضغط 998 hPa
الرؤية: 6000 متر
سماء صافية

METAR: OKBK 180400Z 31012KT 6000 SKC 36/06 Q0998 NOSIG

زمن: 08:00 (05:00 UTC)

توقعات

تاريخ ووقت الإصدار 6ساعات و 15 دقيقة قبل الساعة 22:45UTC
التوقعات صالحة من18 الساعة 00 UTC إلى 19 الساعة 06 UTC
ريح 10 عقدة من الشمال/الشمال الغربي تتزايد حتى 20 عقدة
الرؤية: 7000 متر
سماء صافية
مؤقت
من 18 الساعة 00 UTC إلى 18 الساعة 14 UTC
الرؤية: 3000 متر
هبوب الغبار

TAF: OKBK 172245Z 1800/1906 33010G20KT 7000 SKC TEMPO 1800/1814 3000 BLDU

أرصاد الطقس والتوقعات من أكثر من 4000 مطار (تقارير الطقس للمطار METAR والتنبؤ بالطقس بالمطارTAF).

المحطات المتاحة هي النقط الصفراء والحمراء على الخريطة.

حرك المؤشر فوق النقطة لمعرفة اسم المحطة.

ثم انقر لمعرفة أرصاد وتوقعات الطقس.

لتغيير الخارطة: اضغط على الأزرار الخضراء مع رمز الصليب الأسود للتكبير. على الزر الأخضر مع شرطة للتصغير، أو على الأسهم الخضراء للخرائط المجاورة.


METAR-TAF: